sensor_id;sensor_type;location;lat;lon;timestamp;P1;durP1;ratioP1;P2;durP2;ratioP2
14167;SDS011;7163;50.626;12.922;2023-03-03T00:00:44;38.97;;;18.63;;
14167;SDS011;7163;50.626;12.922;2023-03-03T00:05:44;39.90;;;19.30;;
14167;SDS011;7163;50.626;12.922;2023-03-03T00:10:45;39.17;;;18.87;;
14167;SDS011;7163;50.626;12.922;2023-03-03T00:15:46;41.97;;;20.23;;
14167;SDS011;7163;50.626;12.922;2023-03-03T00:20:48;39.20;;;20.23;;
14167;SDS011;7163;50.626;12.922;2023-03-03T00:25:52;39.43;;;19.87;;
14167;SDS011;7163;50.626;12.922;2023-03-03T00:30:54;39.00;;;19.27;;
14167;SDS011;7163;50.626;12.922;2023-03-03T00:35:56;44.83;;;19.70;;
14167;SDS011;7163;50.626;12.922;2023-03-03T00:40:57;38.37;;;20.00;;
14167;SDS011;7163;50.626;12.922;2023-03-03T00:45:57;45.63;;;20.33;;
14167;SDS011;7163;50.626;12.922;2023-03-03T00:50:58;41.90;;;20.00;;
14167;SDS011;7163;50.626;12.922;2023-03-03T00:55:59;44.70;;;19.53;;
14167;SDS011;7163;50.626;12.922;2023-03-03T01:01:00;42.70;;;20.00;;
14167;SDS011;7163;50.626;12.922;2023-03-03T01:06:10;39.90;;;18.97;;
14167;SDS011;7163;50.626;12.922;2023-03-03T01:11:14;38.20;;;18.20;;
14167;SDS011;7163;50.626;12.922;2023-03-03T01:16:18;43.50;;;18.77;;
14167;SDS011;7163;50.626;12.922;2023-03-03T01:21:19;39.53;;;19.00;;
14167;SDS011;7163;50.626;12.922;2023-03-03T01:26:19;41.07;;;18.00;;
14167;SDS011;7163;50.626;12.922;2023-03-03T01:31:19;46.03;;;19.70;;
14167;SDS011;7163;50.626;12.922;2023-03-03T01:36:23;39.00;;;18.73;;
14167;SDS011;7163;50.626;12.922;2023-03-03T01:41:28;40.77;;;18.50;;
14167;SDS011;7163;50.626;12.922;2023-03-03T01:51:37;42.53;;;18.53;;
14167;SDS011;7163;50.626;12.922;2023-03-03T01:56:44;35.47;;;18.17;;
14167;SDS011;7163;50.626;12.922;2023-03-03T02:01:45;45.07;;;19.07;;
14167;SDS011;7163;50.626;12.922;2023-03-03T02:06:49;37.30;;;17.40;;
14167;SDS011;7163;50.626;12.922;2023-03-03T02:11:53;43.37;;;18.30;;
14167;SDS011;7163;50.626;12.922;2023-03-03T02:16:57;45.97;;;19.03;;
14167;SDS011;7163;50.626;12.922;2023-03-03T02:21:58;44.30;;;18.67;;
14167;SDS011;7163;50.626;12.922;2023-03-03T02:27:01;37.70;;;17.27;;
14167;SDS011;7163;50.626;12.922;2023-03-03T02:32:01;39.73;;;17.57;;
14167;SDS011;7163;50.626;12.922;2023-03-03T02:37:02;43.60;;;17.87;;
14167;SDS011;7163;50.626;12.922;2023-03-03T02:42:12;45.67;;;17.83;;
14167;SDS011;7163;50.626;12.922;2023-03-03T02:47:16;37.30;;;17.27;;
14167;SDS011;7163;50.626;12.922;2023-03-03T02:52:16;46.03;;;19.70;;
14167;SDS011;7163;50.626;12.922;2023-03-03T02:57:18;38.07;;;17.13;;
14167;SDS011;7163;50.626;12.922;2023-03-03T03:02:18;42.53;;;17.73;;
14167;SDS011;7163;50.626;12.922;2023-03-03T03:07:18;36.47;;;17.07;;
14167;SDS011;7163;50.626;12.922;2023-03-03T03:12:19;52.27;;;18.13;;
14167;SDS011;7163;50.626;12.922;2023-03-03T03:17:20;33.90;;;15.90;;
14167;SDS011;7163;50.626;12.922;2023-03-03T03:22:21;46.33;;;20.33;;
14167;SDS011;7163;50.626;12.922;2023-03-03T03:27:21;49.07;;;18.37;;
14167;SDS011;7163;50.626;12.922;2023-03-03T03:32:22;49.63;;;19.37;;
14167;SDS011;7163;50.626;12.922;2023-03-03T03:37:22;46.03;;;18.63;;
14167;SDS011;7163;50.626;12.922;2023-03-03T03:42:23;46.47;;;18.43;;
14167;SDS011;7163;50.626;12.922;2023-03-03T03:47:24;44.83;;;19.30;;
14167;SDS011;7163;50.626;12.922;2023-03-03T03:52:24;53.73;;;20.23;;
14167;SDS011;7163;50.626;12.922;2023-03-03T03:57:25;40.60;;;18.50;;
14167;SDS011;7163;50.626;12.922;2023-03-03T04:02:25;47.07;;;20.03;;
14167;SDS011;7163;50.626;12.922;2023-03-03T04:07:26;44.70;;;22.60;;
14167;SDS011;7163;50.626;12.922;2023-03-03T04:12:26;58.47;;;24.10;;
14167;SDS011;7163;50.626;12.922;2023-03-03T04:17:26;59.40;;;24.57;;
14167;SDS011;7163;50.626;12.922;2023-03-03T04:22:27;64.43;;;25.90;;
14167;SDS011;7163;50.626;12.922;2023-03-03T04:27:33;62.10;;;26.90;;
14167;SDS011;7163;50.626;12.922;2023-03-03T04:32:33;65.57;;;26.40;;
14167;SDS011;7163;50.626;12.922;2023-03-03T04:37:34;64.33;;;27.17;;
14167;SDS011;7163;50.626;12.922;2023-03-03T04:42:35;69.53;;;28.50;;
14167;SDS011;7163;50.626;12.922;2023-03-03T04:47:36;71.17;;;29.20;;
14167;SDS011;7163;50.626;12.922;2023-03-03T04:52:36;95.53;;;31.97;;
14167;SDS011;7163;50.626;12.922;2023-03-03T04:57:37;77.70;;;30.53;;
14167;SDS011;7163;50.626;12.922;2023-03-03T05:02:38;71.37;;;31.20;;
14167;SDS011;7163;50.626;12.922;2023-03-03T05:07:39;85.67;;;31.10;;
14167;SDS011;7163;50.626;12.922;2023-03-03T05:12:39;81.37;;;32.93;;
14167;SDS011;7163;50.626;12.922;2023-03-03T05:17:40;81.70;;;32.63;;
14167;SDS011;7163;50.626;12.922;2023-03-03T05:22:40;93.60;;;35.13;;
14167;SDS011;7163;50.626;12.922;2023-03-03T05:27:41;84.37;;;35.87;;
14167;SDS011;7163;50.626;12.922;2023-03-03T05:32:42;112.47;;;38.97;;
14167;SDS011;7163;50.626;12.922;2023-03-03T05:37:43;104.37;;;38.93;;
14167;SDS011;7163;50.626;12.922;2023-03-03T05:42:46;95.70;;;37.47;;
14167;SDS011;7163;50.626;12.922;2023-03-03T05:47:47;97.47;;;38.13;;
14167;SDS011;7163;50.626;12.922;2023-03-03T05:52:48;100.93;;;37.60;;
14167;SDS011;7163;50.626;12.922;2023-03-03T05:57:49;100.50;;;38.80;;
14167;SDS011;7163;50.626;12.922;2023-03-03T06:02:49;97.27;;;37.83;;
14167;SDS011;7163;50.626;12.922;2023-03-03T06:07:50;110.90;;;38.97;;
14167;SDS011;7163;50.626;12.922;2023-03-03T06:12:53;112.23;;;39.93;;
14167;SDS011;7163;50.626;12.922;2023-03-03T06:17:54;109.53;;;39.13;;
14167;SDS011;7163;50.626;12.922;2023-03-03T06:22:57;90.10;;;36.40;;
14167;SDS011;7163;50.626;12.922;2023-03-03T06:27:57;93.33;;;34.60;;
14167;SDS011;7163;50.626;12.922;2023-03-03T06:32:57;86.97;;;35.97;;
14167;SDS011;7163;50.626;12.922;2023-03-03T06:38:01;96.47;;;33.77;;
14167;SDS011;7163;50.626;12.922;2023-03-03T06:43:01;97.50;;;36.67;;
14167;SDS011;7163;50.626;12.922;2023-03-03T06:48:03;105.70;;;38.67;;
14167;SDS011;7163;50.626;12.922;2023-03-03T06:58:11;102.23;;;37.97;;
14167;SDS011;7163;50.626;12.922;2023-03-03T07:03:17;105.93;;;37.53;;
14167;SDS011;7163;50.626;12.922;2023-03-03T07:08:22;112.73;;;38.40;;
14167;SDS011;7163;50.626;12.922;2023-03-03T07:13:27;102.67;;;39.30;;
14167;SDS011;7163;50.626;12.922;2023-03-03T07:23:48;97.00;;;36.20;;
14167;SDS011;7163;50.626;12.922;2023-03-03T07:28:57;100.47;;;39.93;;
14167;SDS011;7163;50.626;12.922;2023-03-03T07:34:22;114.80;;;40.37;;
14167;SDS011;7163;50.626;12.922;2023-03-03T07:39:25;98.90;;;38.73;;
14167;SDS011;7163;50.626;12.922;2023-03-03T07:44:36;101.10;;;39.00;;
14167;SDS011;7163;50.626;12.922;2023-03-03T07:49:37;97.40;;;38.67;;
14167;SDS011;7163;50.626;12.922;2023-03-03T07:54:38;102.93;;;39.33;;
14167;SDS011;7163;50.626;12.922;2023-03-03T07:59:42;86.10;;;36.57;;
14167;SDS011;7163;50.626;12.922;2023-03-03T08:04:47;87.70;;;36.17;;
14167;SDS011;7163;50.626;12.922;2023-03-03T08:09:58;86.47;;;34.73;;
14167;SDS011;7163;50.626;12.922;2023-03-03T08:15:10;92.47;;;37.73;;
14167;SDS011;7163;50.626;12.922;2023-03-03T08:25:31;81.77;;;36.37;;
14167;SDS011;7163;50.626;12.922;2023-03-03T08:30:31;87.53;;;36.23;;
14167;SDS011;7163;50.626;12.922;2023-03-03T08:35:32;83.57;;;34.27;;
14167;SDS011;7163;50.626;12.922;2023-03-03T08:40:35;77.40;;;34.20;;
14167;SDS011;7163;50.626;12.922;2023-03-03T08:45:36;79.87;;;34.63;;
14167;SDS011;7163;50.626;12.922;2023-03-03T08:50:37;82.30;;;36.27;;
14167;SDS011;7163;50.626;12.922;2023-03-03T08:55:38;70.90;;;31.20;;
14167;SDS011;7163;50.626;12.922;2023-03-03T09:00:39;77.37;;;34.17;;
14167;SDS011;7163;50.626;12.922;2023-03-03T09:05:40;71.60;;;33.60;;
14167;SDS011;7163;50.626;12.922;2023-03-03T09:10:47;72.47;;;33.13;;
14167;SDS011;7163;50.626;12.922;2023-03-03T09:15:47;59.00;;;28.17;;
14167;SDS011;7163;50.626;12.922;2023-03-03T09:20:50;58.00;;;25.33;;
14167;SDS011;7163;50.626;12.922;2023-03-03T09:25:51;49.10;;;22.43;;
14167;SDS011;7163;50.626;12.922;2023-03-03T09:30:53;47.03;;;22.60;;
14167;SDS011;7163;50.626;12.922;2023-03-03T09:35:57;43.97;;;22.20;;
14167;SDS011;7163;50.626;12.922;2023-03-03T09:41:15;37.40;;;19.13;;
14167;SDS011;7163;50.626;12.922;2023-03-03T09:46:54;69.83;;;35.43;;
14167;SDS011;7163;50.626;12.922;2023-03-03T09:52:36;33.37;;;17.73;;
14167;SDS011;7163;50.626;12.922;2023-03-03T10:03:01;43.17;;;22.70;;
14167;SDS011;7163;50.626;12.922;2023-03-03T10:08:41;42.27;;;22.50;;
14167;SDS011;7163;50.626;12.922;2023-03-03T10:14:16;38.27;;;20.57;;
14167;SDS011;7163;50.626;12.922;2023-03-03T10:19:31;39.50;;;20.93;;
14167;SDS011;7163;50.626;12.922;2023-03-03T10:24:51;36.70;;;20.27;;
14167;SDS011;7163;50.626;12.922;2023-03-03T10:30:02;36.17;;;19.43;;
14167;SDS011;7163;50.626;12.922;2023-03-03T11:02:09;39.67;;;20.40;;
14167;SDS011;7163;50.626;12.922;2023-03-03T11:07:28;48.67;;;24.40;;
14167;SDS011;7163;50.626;12.922;2023-03-03T11:12:56;45.53;;;22.47;;
14167;SDS011;7163;50.626;12.922;2023-03-03T11:24:11;43.50;;;20.77;;
14167;SDS011;7163;50.626;12.922;2023-03-03T11:29:24;39.00;;;19.87;;
14167;SDS011;7163;50.626;12.922;2023-03-03T11:40:12;32.93;;;16.97;;
14167;SDS011;7163;50.626;12.922;2023-03-03T11:45:17;30.13;;;16.00;;
14167;SDS011;7163;50.626;12.922;2023-03-03T11:50:23;31.80;;;17.13;;
14167;SDS011;7163;50.626;12.922;2023-03-03T12:00:36;29.97;;;16.77;;
14167;SDS011;7163;50.626;12.922;2023-03-03T12:22:23;28.30;;;15.63;;
14167;SDS011;7163;50.626;12.922;2023-03-03T12:27:34;28.10;;;16.67;;
14167;SDS011;7163;50.626;12.922;2023-03-03T12:32:47;27.47;;;15.93;;
14167;SDS011;7163;50.626;12.922;2023-03-03T12:43:27;25.07;;;14.80;;
14167;SDS011;7163;50.626;12.922;2023-03-03T12:48:39;25.40;;;14.00;;
14167;SDS011;7163;50.626;12.922;2023-03-03T12:59:11;32.00;;;16.93;;
14167;SDS011;7163;50.626;12.922;2023-03-03T13:15:11;21.53;;;13.40;;
14167;SDS011;7163;50.626;12.922;2023-03-03T13:20:24;21.97;;;12.77;;
14167;SDS011;7163;50.626;12.922;2023-03-03T13:30:35;24.90;;;12.43;;
14167;SDS011;7163;50.626;12.922;2023-03-03T13:40:48;20.47;;;11.57;;
14167;SDS011;7163;50.626;12.922;2023-03-03T13:46:05;22.40;;;13.27;;
14167;SDS011;7163;50.626;12.922;2023-03-03T13:51:18;18.00;;;10.90;;
14167;SDS011;7163;50.626;12.922;2023-03-03T13:56:40;17.30;;;10.47;;
14167;SDS011;7163;50.626;12.922;2023-03-03T14:01:54;17.43;;;10.00;;
14167;SDS011;7163;50.626;12.922;2023-03-03T14:07:02;20.10;;;12.40;;
14167;SDS011;7163;50.626;12.922;2023-03-03T14:12:14;19.80;;;10.80;;
14167;SDS011;7163;50.626;12.922;2023-03-03T14:17:26;18.00;;;10.30;;
14167;SDS011;7163;50.626;12.922;2023-03-03T14:22:53;20.60;;;10.27;;
14167;SDS011;7163;50.626;12.922;2023-03-03T14:28:07;20.23;;;11.47;;
14167;SDS011;7163;50.626;12.922;2023-03-03T14:38:14;15.77;;;8.63;;
14167;SDS011;7163;50.626;12.922;2023-03-03T14:43:21;19.90;;;10.53;;
14167;SDS011;7163;50.626;12.922;2023-03-03T14:48:23;17.27;;;9.30;;
14167;SDS011;7163;50.626;12.922;2023-03-03T14:58:39;16.60;;;8.87;;
14167;SDS011;7163;50.626;12.922;2023-03-03T15:03:44;18.63;;;11.03;;
14167;SDS011;7163;50.626;12.922;2023-03-03T15:08:46;24.43;;;12.90;;
14167;SDS011;7163;50.626;12.922;2023-03-03T15:13:47;53.57;;;23.23;;
14167;SDS011;7163;50.626;12.922;2023-03-03T15:29:07;17.73;;;9.20;;
14167;SDS011;7163;50.626;12.922;2023-03-03T15:39:45;17.83;;;9.20;;
14167;SDS011;7163;50.626;12.922;2023-03-03T15:44:55;17.33;;;9.27;;
14167;SDS011;7163;50.626;12.922;2023-03-03T15:50:12;25.53;;;14.73;;
14167;SDS011;7163;50.626;12.922;2023-03-03T15:55:31;18.63;;;10.63;;
14167;SDS011;7163;50.626;12.922;2023-03-03T16:05:56;19.70;;;9.97;;
14167;SDS011;7163;50.626;12.922;2023-03-03T16:11:06;24.00;;;12.90;;
14167;SDS011;7163;50.626;12.922;2023-03-03T16:16:27;27.43;;;14.33;;
14167;SDS011;7163;50.626;12.922;2023-03-03T16:21:58;23.33;;;11.83;;
14167;SDS011;7163;50.626;12.922;2023-03-03T16:27:26;21.93;;;11.40;;
14167;SDS011;7163;50.626;12.922;2023-03-03T16:37:48;21.03;;;10.53;;
14167;SDS011;7163;50.626;12.922;2023-03-03T16:53:47;22.20;;;11.47;;
14167;SDS011;7163;50.626;12.922;2023-03-03T17:10:01;50.37;;;22.10;;
14167;SDS011;7163;50.626;12.922;2023-03-03T17:15:14;34.50;;;14.30;;
14167;SDS011;7163;50.626;12.922;2023-03-03T17:20:37;25.77;;;12.50;;
14167;SDS011;7163;50.626;12.922;2023-03-03T17:46:48;69.37;;;29.87;;
14167;SDS011;7163;50.626;12.922;2023-03-03T17:57:36;36.20;;;16.63;;
14167;SDS011;7163;50.626;12.922;2023-03-03T18:13:18;35.27;;;16.37;;
14167;SDS011;7163;50.626;12.922;2023-03-03T18:23:45;34.90;;;15.07;;
14167;SDS011;7163;50.626;12.922;2023-03-03T18:28:48;38.07;;;15.20;;
14167;SDS011;7163;50.626;12.922;2023-03-03T18:33:59;49.67;;;19.00;;
14167;SDS011;7163;50.626;12.922;2023-03-03T18:39:08;45.27;;;19.20;;
14167;SDS011;7163;50.626;12.922;2023-03-03T18:44:28;39.87;;;17.10;;
14167;SDS011;7163;50.626;12.922;2023-03-03T19:00:24;44.60;;;19.60;;
14167;SDS011;7163;50.626;12.922;2023-03-03T19:05:35;54.70;;;21.40;;
14167;SDS011;7163;50.626;12.922;2023-03-03T19:10:44;50.63;;;19.87;;
14167;SDS011;7163;50.626;12.922;2023-03-03T19:15:51;47.63;;;19.43;;
14167;SDS011;7163;50.626;12.922;2023-03-03T19:20:55;41.00;;;17.07;;
14167;SDS011;7163;50.626;12.922;2023-03-03T19:26:19;43.33;;;18.63;;
14167;SDS011;7163;50.626;12.922;2023-03-03T19:31:39;50.63;;;19.23;;
14167;SDS011;7163;50.626;12.922;2023-03-03T19:42:44;49.33;;;21.83;;
14167;SDS011;7163;50.626;12.922;2023-03-03T19:47:53;45.70;;;19.13;;
14167;SDS011;7163;50.626;12.922;2023-03-03T19:58:19;45.03;;;19.07;;
14167;SDS011;7163;50.626;12.922;2023-03-03T20:03:28;44.60;;;18.63;;
14167;SDS011;7163;50.626;12.922;2023-03-03T20:08:56;37.37;;;17.30;;
14167;SDS011;7163;50.626;12.922;2023-03-03T20:14:01;39.43;;;16.50;;
14167;SDS011;7163;50.626;12.922;2023-03-03T20:25:06;39.20;;;17.33;;
14167;SDS011;7163;50.626;12.922;2023-03-03T20:30:23;38.03;;;16.20;;
14167;SDS011;7163;50.626;12.922;2023-03-03T20:52:13;39.03;;;19.63;;
14167;SDS011;7163;50.626;12.922;2023-03-03T21:03:05;37.37;;;16.20;;
14167;SDS011;7163;50.626;12.922;2023-03-03T21:08:15;38.50;;;17.00;;
14167;SDS011;7163;50.626;12.922;2023-03-03T21:18:40;43.67;;;18.50;;
14167;SDS011;7163;50.626;12.922;2023-03-03T21:23:41;50.67;;;21.20;;
14167;SDS011;7163;50.626;12.922;2023-03-03T21:28:57;40.07;;;16.97;;
14167;SDS011;7163;50.626;12.922;2023-03-03T21:33:58;42.47;;;16.30;;
14167;SDS011;7163;50.626;12.922;2023-03-03T21:38:59;45.03;;;19.87;;
14167;SDS011;7163;50.626;12.922;2023-03-03T21:44:01;43.43;;;20.30;;
14167;SDS011;7163;50.626;12.922;2023-03-03T21:49:28;38.97;;;18.07;;
14167;SDS011;7163;50.626;12.922;2023-03-03T21:54:28;43.30;;;17.53;;
14167;SDS011;7163;50.626;12.922;2023-03-03T21:59:29;37.43;;;17.10;;
14167;SDS011;7163;50.626;12.922;2023-03-03T22:04:29;40.33;;;16.70;;
14167;SDS011;7163;50.626;12.922;2023-03-03T22:09:30;47.00;;;18.37;;
14167;SDS011;7163;50.626;12.922;2023-03-03T22:14:30;44.53;;;18.27;;
14167;SDS011;7163;50.626;12.922;2023-03-03T22:19:30;45.80;;;18.17;;
14167;SDS011;7163;50.626;12.922;2023-03-03T22:24:33;48.20;;;19.20;;
14167;SDS011;7163;50.626;12.922;2023-03-03T22:29:33;50.80;;;19.03;;
14167;SDS011;7163;50.626;12.922;2023-03-03T22:34:34;47.43;;;19.97;;
14167;SDS011;7163;50.626;12.922;2023-03-03T22:39:34;50.97;;;18.03;;
14167;SDS011;7163;50.626;12.922;2023-03-03T22:44:34;44.20;;;18.30;;
14167;SDS011;7163;50.626;12.922;2023-03-03T22:49:35;53.20;;;19.90;;
14167;SDS011;7163;50.626;12.922;2023-03-03T22:54:35;56.13;;;21.23;;
14167;SDS011;7163;50.626;12.922;2023-03-03T22:59:36;55.70;;;20.27;;
14167;SDS011;7163;50.626;12.922;2023-03-03T23:04:36;62.10;;;20.50;;
14167;SDS011;7163;50.626;12.922;2023-03-03T23:09:37;54.77;;;20.27;;
14167;SDS011;7163;50.626;12.922;2023-03-03T23:14:37;62.83;;;21.80;;
14167;SDS011;7163;50.626;12.922;2023-03-03T23:19:37;52.00;;;20.67;;
14167;SDS011;7163;50.626;12.922;2023-03-03T23:24:38;49.80;;;19.50;;
14167;SDS011;7163;50.626;12.922;2023-03-03T23:29:39;55.43;;;19.90;;
14167;SDS011;7163;50.626;12.922;2023-03-03T23:34:39;47.87;;;18.93;;
14167;SDS011;7163;50.626;12.922;2023-03-03T23:39:40;47.53;;;18.83;;
14167;SDS011;7163;50.626;12.922;2023-03-03T23:44:40;53.40;;;20.90;;
14167;SDS011;7163;50.626;12.922;2023-03-03T23:49:41;45.60;;;19.43;;
14167;SDS011;7163;50.626;12.922;2023-03-03T23:54:41;55.90;;;20.47;;
14167;SDS011;7163;50.626;12.922;2023-03-03T23:59:42;45.13;;;19.03;;
